createdAt,value
2016-12-30T00:00:48.192Z,1.21
2016-12-30T00:01:58.936Z,1.07
2016-12-30T00:03:08.874Z,1.12
2016-12-30T00:04:19.228Z,1.14
2016-12-30T00:05:29.167Z,1.02
2016-12-30T00:06:39.913Z,1.04
2016-12-30T00:07:49.530Z,1.02
2016-12-30T00:08:59.866Z,1.04
2016-12-30T00:10:10.609Z,1.07
2016-12-30T00:11:20.545Z,1.04
2016-12-30T00:12:30.902Z,1.08
2016-12-30T00:13:41.654Z,1.03
2016-12-30T00:14:52.395Z,0.96
2016-12-30T00:16:03.132Z,1.1
2016-12-30T00:17:13.488Z,1.07
2016-12-30T00:18:23.825Z,1.08
2016-12-30T00:19:34.173Z,1.03
2016-12-30T00:20:44.515Z,1.02
2016-12-30T00:21:54.476Z,1.07
2016-12-30T00:23:05.212Z,1.11
2016-12-30T00:24:15.556Z,1.17
2016-12-30T00:25:25.511Z,1.07
2016-12-30T00:26:35.869Z,1.03
2016-12-30T00:27:45.814Z,1.03
2016-12-30T00:28:56.532Z,0.99
2016-12-30T00:30:06.889Z,1.02
2016-12-30T00:31:17.623Z,1.02
2016-12-30T00:32:27.987Z,1.02
2016-12-30T00:33:38.727Z,1
2016-12-30T00:34:49.464Z,1.02
2016-12-30T00:35:59.807Z,1.02
2016-12-30T00:37:09.792Z,1.03
2016-12-30T00:38:20.525Z,1.04
2016-12-30T00:39:31.271Z,1.07
2016-12-30T00:40:42.008Z,1
2016-12-30T00:41:52.770Z,1.03
2016-12-30T00:43:02.752Z,0.96
2016-12-30T00:44:13.094Z,0.97
2016-12-30T00:45:23.428Z,0.86
2016-12-30T00:46:33.771Z,0.89
2016-12-30T00:47:44.119Z,0.86
2016-12-30T00:48:54.099Z,0.86
2016-12-30T00:50:04.851Z,0.84
2016-12-30T00:51:15.582Z,0.86
2016-12-30T00:52:26.326Z,0.79
2016-12-30T00:53:37.070Z,0.85
2016-12-30T00:54:47.415Z,0.85
2016-12-30T00:55:58.156Z,0.81
2016-12-30T00:57:08.892Z,0.78
2016-12-30T00:58:19.680Z,0.78
2016-12-30T00:59:30.419Z,0.81
2016-12-30T01:00:41.175Z,0.79
2016-12-30T01:01:51.509Z,0.86
2016-12-30T01:03:02.272Z,0.86
2016-12-30T01:04:13.006Z,0.92
2016-12-30T01:05:23.348Z,0.93
2016-12-30T01:06:33.700Z,0.89
2016-12-30T01:07:44.444Z,0.89
2016-12-30T01:08:54.778Z,0.89
2016-12-30T01:10:05.120Z,0.85
2016-12-30T01:11:15.478Z,0.89
2016-12-30T01:12:25.429Z,0.99
2016-12-30T01:13:36.165Z,0.93
2016-12-30T01:14:46.121Z,0.94
2016-12-30T01:15:56.464Z,0.9
2016-12-30T01:17:06.019Z,0.92
2016-12-30T01:18:16.396Z,0.84
2016-12-30T01:19:26.329Z,0.82
2016-12-30T01:20:36.270Z,0.82
2016-12-30T01:21:46.608Z,0.9
2016-12-30T01:22:57.340Z,0.85
2016-12-30T01:24:07.325Z,0.85
2016-12-30T01:25:18.067Z,0.82
2016-12-30T01:26:28.644Z,0.76
2016-12-30T01:27:39.380Z,0.82
2016-12-30T01:28:49.718Z,0.74
2016-12-30T01:30:00.449Z,0.81
2016-12-30T01:31:10.797Z,0.81
2016-12-30T01:32:21.528Z,0.79
2016-12-30T01:33:32.285Z,0.76
2016-12-30T01:34:42.627Z,0.74
2016-12-30T01:35:53.374Z,0.76
2016-12-30T01:37:03.716Z,0.75
2016-12-30T01:38:14.442Z,0.66
2016-12-30T01:39:24.783Z,0.74
2016-12-30T01:40:35.119Z,0.66
2016-12-30T01:41:45.480Z,0.72
2016-12-30T01:42:55.422Z,0.71
2016-12-30T01:44:05.777Z,0.64
2016-12-30T01:45:16.120Z,0.69
2016-12-30T01:46:26.852Z,0.67
2016-12-30T01:47:37.189Z,0.66
2016-12-30T01:48:47.528Z,0.76
2016-12-30T01:49:57.868Z,0.72
2016-12-30T01:51:08.617Z,0.71
2016-12-30T01:52:18.957Z,0.69
2016-12-30T01:53:29.712Z,0.69
2016-12-30T01:54:40.445Z,0.61
2016-12-30T01:55:50.791Z,0.63
2016-12-30T01:57:00.747Z,0.6
2016-12-30T01:58:11.493Z,0.69
2016-12-30T01:59:21.834Z,0.63
2016-12-30T02:00:32.198Z,0.6
2016-12-30T02:01:42.535Z,0.61
2016-12-30T02:02:53.291Z,0.48
2016-12-30T02:04:03.662Z,0.6
2016-12-30T02:05:14.029Z,0.47
2016-12-30T02:06:23.968Z,0.52
2016-12-30T02:07:34.313Z,0.45
2016-12-30T02:08:44.670Z,0.57
2016-12-30T02:09:55.021Z,0.52
2016-12-30T02:11:05.743Z,0.5
2016-12-30T02:12:16.475Z,0.45
2016-12-30T02:13:27.211Z,0.47
2016-12-30T02:14:37.548Z,0.44
2016-12-30T02:15:47.896Z,0.47
2016-12-30T02:16:57.862Z,0.48
2016-12-30T02:18:08.603Z,0.47
2016-12-30T02:19:19.336Z,0.57
2016-12-30T02:20:30.092Z,0.52
2016-12-30T02:21:40.848Z,0.53
2016-12-30T02:22:51.199Z,0.45
2016-12-30T02:24:01.932Z,0.5
2016-12-30T02:25:12.305Z,0.47
2016-12-30T02:26:23.049Z,0.47
2016-12-30T02:27:33.036Z,0.38
2016-12-30T02:28:43.804Z,0.47
2016-12-30T02:29:53.759Z,0.41
2016-12-30T02:31:03.702Z,0.39
2016-12-30T02:32:14.441Z,0.39
2016-12-30T02:33:24.786Z,0.39
2016-12-30T02:34:35.121Z,0.32
2016-12-30T02:35:45.476Z,0.39
2016-12-30T02:36:55.413Z,0.38
2016-12-30T02:38:05.350Z,0.35
2016-12-30T02:39:16.088Z,0.35
2016-12-30T02:40:26.831Z,0.37
2016-12-30T02:41:36.792Z,0.34
2016-12-30T02:42:46.770Z,0.38
2016-12-30T02:43:57.494Z,0.34
2016-12-30T02:45:07.456Z,0.39
2016-12-30T02:46:17.779Z,0.34
2016-12-30T02:47:28.515Z,0.38
2016-12-30T02:48:38.845Z,0.38
2016-12-30T02:49:49.187Z,0.38
2016-12-30T02:50:59.524Z,0.34
2016-12-30T02:52:09.870Z,0.27
2016-12-30T02:53:20.607Z,0.31
2016-12-30T02:54:31.328Z,0.31
2016-12-30T02:55:41.669Z,0.26
2016-12-30T02:56:52.014Z,0.35
2016-12-30T02:58:02.770Z,0.34
2016-12-30T02:59:13.491Z,0.34
2016-12-30T03:00:23.448Z,0.35
2016-12-30T03:01:33.819Z,0.32
2016-12-30T03:33:18.554Z,-2.93
2016-12-30T03:34:28.893Z,-3.03
2016-12-30T03:35:39.215Z,-2.96
2016-12-30T03:36:49.551Z,-2.9
2016-12-30T03:38:00.283Z,-2.68
2016-12-30T03:39:10.627Z,-2.61
2016-12-30T03:40:21.359Z,-2.47
2016-12-30T03:41:32.087Z,-2.39
2016-12-30T03:42:42.034Z,-2.06
2016-12-30T03:43:52.370Z,-1.92
2016-12-30T03:45:03.097Z,-1.74
2016-12-30T03:46:13.838Z,-1.64
2016-12-30T03:47:24.581Z,-1.4
2016-12-30T03:48:35.307Z,-1.27
2016-12-30T03:49:45.652Z,-1.1
2016-12-30T03:50:55.595Z,-0.99
2016-12-30T03:52:05.954Z,-0.93
2016-12-30T03:53:16.284Z,-0.77
2016-12-30T03:54:26.627Z,-0.62
2016-12-30T03:55:36.573Z,-0.62
2016-12-30T03:56:47.313Z,-0.4
2016-12-30T03:57:56.860Z,-0.4
2016-12-30T03:59:07.606Z,-0.4
2016-12-30T04:00:17.946Z,-0.25
2016-12-30T04:01:28.288Z,-0.25
2016-12-30T04:02:38.633Z,-0.18
2016-12-30T04:03:49.368Z,-0.18
2016-12-30T04:05:00.090Z,-0.09
2016-12-30T04:06:10.847Z,-0.16
2016-12-30T04:07:21.184Z,-0.01
2016-12-30T04:08:31.520Z,-0.02
2016-12-30T04:09:42.252Z,0.01
2016-12-30T04:10:52.593Z,-0.02
2016-12-30T04:12:03.327Z,0.08
2016-12-30T04:13:14.064Z,0.02
2016-12-30T04:14:24.401Z,0.09
2016-12-30T04:15:34.742Z,0.09
2016-12-30T04:16:45.483Z,0.06
2016-12-30T04:17:56.060Z,0.09
2016-12-30T04:19:06.788Z,0.05
2016-12-30T04:20:17.528Z,0.13
2016-12-30T04:21:28.266Z,0.08
2016-12-30T04:22:38.608Z,0.16
2016-12-30T04:23:49.377Z,0.17
2016-12-30T04:25:00.116Z,0.21
2016-12-30T04:26:10.859Z,0.2
2016-12-30T04:27:21.583Z,0.1
2016-12-30T04:28:31.928Z,0.17
2016-12-30T04:29:42.668Z,0.14
2016-12-30T04:30:53.440Z,0.19
2016-12-30T04:32:04.186Z,0.17
2016-12-30T04:33:14.918Z,0.16
2016-12-30T04:34:25.654Z,0.21
2016-12-30T04:35:35.986Z,0.16
2016-12-30T04:36:46.722Z,0.1
2016-12-30T04:37:57.449Z,0.2
2016-12-30T04:39:08.190Z,0.24
2016-12-30T04:40:18.524Z,0.14
2016-12-30T04:41:28.874Z,0.19
2016-12-30T04:42:39.228Z,0.16
2016-12-30T04:43:49.573Z,0.23
2016-12-30T04:44:59.939Z,0.21
2016-12-30T04:46:10.661Z,0.21
2016-12-30T04:47:21.012Z,0.23
2016-12-30T04:48:31.735Z,0.1
2016-12-30T04:49:42.468Z,0.21
2016-12-30T04:50:52.805Z,0.26
2016-12-30T04:52:03.569Z,0.35
2016-12-30T04:53:14.317Z,0.28
2016-12-30T04:54:25.064Z,0.32
2016-12-30T04:55:35.801Z,0.24
2016-12-30T04:56:46.541Z,0.31
2016-12-30T04:57:56.891Z,0.34
2016-12-30T04:59:07.240Z,0.28
2016-12-30T05:00:17.197Z,0.31
2016-12-30T05:01:27.931Z,0.31
2016-12-30T05:02:38.680Z,0.28
2016-12-30T05:03:49.032Z,0.26
2016-12-30T05:04:58.995Z,0.21
2016-12-30T05:06:08.550Z,0.24
2016-12-30T05:07:19.288Z,0.17
2016-12-30T05:08:29.626Z,0.19
2016-12-30T05:09:39.567Z,0.2
2016-12-30T05:10:50.317Z,0.19
2016-12-30T05:12:01.051Z,0.19
2016-12-30T05:13:11.798Z,0.17
2016-12-30T05:14:22.533Z,0.16
2016-12-30T05:15:33.309Z,0.19
2016-12-30T05:16:43.232Z,0.17
2016-12-30T05:17:53.969Z,0.17
2016-12-30T05:19:04.306Z,0.19
2016-12-30T05:20:15.062Z,0.1
2016-12-30T05:21:25.808Z,0.1
2016-12-30T05:22:36.550Z,0.09
2016-12-30T05:23:47.291Z,0.09
2016-12-30T05:24:58.033Z,0.05
2016-12-30T05:26:08.775Z,0.06
2016-12-30T05:27:19.517Z,0.05
2016-12-30T05:28:29.844Z,0.13
2016-12-30T05:29:40.580Z,0.2
2016-12-30T05:30:51.323Z,0.16
2016-12-30T05:32:01.668Z,0.17
2016-12-30T05:33:11.228Z,0.21
2016-12-30T05:34:21.963Z,0.16
2016-12-30T05:35:31.909Z,0.23
2016-12-30T05:36:42.636Z,0.2
2016-12-30T05:37:52.991Z,0.23
2016-12-30T05:39:03.721Z,0.17
2016-12-30T05:40:14.062Z,0.19
2016-12-30T05:41:24.793Z,0.09
2016-12-30T05:42:35.536Z,0.1
2016-12-30T05:43:46.275Z,0.13
2016-12-30T05:44:56.612Z,0.09
2016-12-30T05:46:06.966Z,0.08
2016-12-30T05:47:17.313Z,0.09
2016-12-30T05:48:28.064Z,0.09
2016-12-30T05:49:38.809Z,0.06
2016-12-30T05:50:49.177Z,0.06
2016-12-30T05:51:59.509Z,0.14
2016-12-30T05:53:10.236Z,0.09
2016-12-30T05:54:20.581Z,0.09
2016-12-30T05:55:31.312Z,0.08
2016-12-30T05:56:42.055Z,0.08
2016-12-30T05:57:52.396Z,0.09
2016-12-30T05:59:03.143Z,0.1
2016-12-30T06:00:13.481Z,0.13
2016-12-30T06:01:23.853Z,0.06
2016-12-30T06:02:34.212Z,0.09
2016-12-30T06:03:44.946Z,0.13
2016-12-30T06:04:55.677Z,0.08
2016-12-30T06:06:06.414Z,0.09
2016-12-30T06:07:16.786Z,0.08
2016-12-30T06:08:27.137Z,0.09
2016-12-30T06:09:37.871Z,0.08
2016-12-30T06:10:48.604Z,0.13
2016-12-30T06:11:59.368Z,0.03
2016-12-30T06:13:09.325Z,0.06
2016-12-30T06:14:19.703Z,0.13
2016-12-30T06:15:30.034Z,-0.01
2016-12-30T06:16:40.759Z,0.09
2016-12-30T06:17:50.716Z,0.06
2016-12-30T06:19:01.448Z,0.09
2016-12-30T06:20:11.404Z,0.06
2016-12-30T06:21:22.171Z,0.09
2016-12-30T06:22:32.508Z,0.09
2016-12-30T06:23:43.243Z,0.08
2016-12-30T06:24:53.966Z,0.16
2016-12-30T06:26:04.716Z,0.09
2016-12-30T06:27:15.458Z,0.26
2016-12-30T06:28:26.214Z,0.09
2016-12-30T06:29:36.560Z,0.08
2016-12-30T06:30:47.294Z,0.13
2016-12-30T06:31:57.661Z,0.09
2016-12-30T06:33:08.398Z,-0.01
2016-12-30T06:34:18.757Z,0.1
2016-12-30T06:35:29.092Z,0.01
2016-12-30T06:36:39.443Z,0.09
2016-12-30T06:37:50.186Z,0.05
2016-12-30T06:39:00.146Z,0.02
2016-12-30T06:40:10.099Z,0.08
2016-12-30T06:41:20.479Z,0.06
2016-12-30T06:42:31.212Z,0.1
2016-12-30T06:43:41.535Z,0.1
2016-12-30T06:44:52.256Z,0.08
2016-12-30T06:46:02.587Z,0.13
2016-12-30T06:47:13.325Z,0.03
2016-12-30T06:48:24.060Z,0.08
2016-12-30T06:49:34.808Z,0.02
2016-12-30T06:50:45.147Z,0.05
2016-12-30T06:51:55.503Z,0.09
2016-12-30T06:53:05.442Z,0.09
2016-12-30T06:54:16.171Z,0.03
2016-12-30T06:55:26.943Z,0.08
2016-12-30T06:56:37.678Z,0.01
2016-12-30T06:57:48.016Z,0.03
2016-12-30T06:58:58.367Z,0.1
2016-12-30T07:00:08.706Z,0.08
2016-12-30T07:01:19.461Z,0.16
2016-12-30T07:02:29.808Z,0.16
2016-12-30T07:03:40.575Z,0.16
2016-12-30T07:04:50.920Z,0.23
2016-12-30T07:06:01.656Z,0.1
2016-12-30T07:07:12.403Z,0.27
2016-12-30T07:08:23.135Z,0.21
2016-12-30T07:09:33.880Z,0.26
2016-12-30T07:10:44.617Z,0.35
2016-12-30T07:11:54.956Z,0.37
2016-12-30T07:13:04.897Z,0.41
2016-12-30T07:14:15.623Z,0.44
2016-12-30T07:15:26.357Z,0.41
2016-12-30T07:16:36.307Z,0.48
2016-12-30T07:17:47.041Z,0.41
2016-12-30T07:18:57.410Z,0.47
2016-12-30T07:20:08.152Z,0.44
2016-12-30T07:21:18.502Z,0.52
2016-12-30T07:22:29.282Z,0.5
2016-12-30T07:23:39.222Z,0.64
2016-12-30T07:24:49.564Z,0.61
2016-12-30T07:25:59.913Z,0.64
2016-12-30T07:27:10.267Z,0.64
2016-12-30T07:28:20.623Z,0.6
2016-12-30T07:29:30.995Z,0.6
2016-12-30T07:30:41.722Z,0.76
2016-12-30T07:31:51.678Z,0.78
2016-12-30T07:33:02.427Z,0.74
2016-12-30T07:34:12.804Z,0.92
2016-12-30T07:35:23.549Z,0.89
2016-12-30T07:36:33.888Z,1
2016-12-30T07:37:44.613Z,1.08
2016-12-30T07:38:55.384Z,1.14
2016-12-30T07:40:06.116Z,1.11
2016-12-30T07:41:17.089Z,1.11
2016-12-30T07:42:27.035Z,1.2
2016-12-30T07:43:37.796Z,1.26
2016-12-30T07:44:48.544Z,1.35
2016-12-30T07:45:58.891Z,1.36
2016-12-30T07:47:09.632Z,1.48
2016-12-30T07:48:19.979Z,1.44
2016-12-30T07:49:30.312Z,1.42
2016-12-30T07:50:41.046Z,1.56
2016-12-30T07:51:51.403Z,1.65
2016-12-30T07:53:01.747Z,1.65
2016-12-30T07:54:12.088Z,1.74
2016-12-30T07:55:22.526Z,1.75
2016-12-30T07:56:32.479Z,1.71
2016-12-30T07:57:42.841Z,1.82
2016-12-30T07:58:53.190Z,1.83
2016-12-30T08:00:03.936Z,1.75
2016-12-30T08:01:14.278Z,1.74
2016-12-30T08:02:24.654Z,1.79
2016-12-30T08:03:35.005Z,1.79
2016-12-30T08:04:45.351Z,1.86
2016-12-30T08:05:55.698Z,1.86
2016-12-30T08:07:06.445Z,1.83
2016-12-30T08:08:17.211Z,1.9
2016-12-30T08:09:27.566Z,1.93
2016-12-30T08:10:37.902Z,2.02
2016-12-30T08:11:48.633Z,2.09
2016-12-30T08:12:59.358Z,1.98
2016-12-30T08:14:10.126Z,2.18
2016-12-30T08:15:20.472Z,2.24
2016-12-30T08:16:31.224Z,2.22
2016-12-30T08:17:41.968Z,2.29
2016-12-30T08:18:52.307Z,2.33
2016-12-30T08:20:02.667Z,2.31
2016-12-30T08:21:13.402Z,2.4
2016-12-30T08:22:24.142Z,2.47
2016-12-30T08:23:34.889Z,2.49
2016-12-30T08:24:45.646Z,2.59
2016-12-30T08:25:55.987Z,2.72
2016-12-30T08:27:05.934Z,2.76
2016-12-30T08:28:15.901Z,2.69
2016-12-30T08:29:26.647Z,2.7
2016-12-30T08:30:36.991Z,2.77
2016-12-30T08:31:46.950Z,2.81
2016-12-30T08:32:57.305Z,2.93
2016-12-30T08:34:07.650Z,2.91
2016-12-30T08:35:18.006Z,2.9
2016-12-30T08:36:28.753Z,3.05
2016-12-30T08:37:39.102Z,3.05
2016-12-30T08:38:49.446Z,3.08
2016-12-30T08:39:59.397Z,3.06
2016-12-30T08:41:10.155Z,3.11
2016-12-30T08:42:20.507Z,3.16
2016-12-30T08:43:30.847Z,3.26
2016-12-30T08:44:41.579Z,3.2
2016-12-30T08:45:52.321Z,3.39
2016-12-30T08:47:02.650Z,3.27
2016-12-30T08:48:12.225Z,3.45
2016-12-30T08:49:22.621Z,3.51
2016-12-30T08:50:32.954Z,3.53
2016-12-30T08:51:42.515Z,3.53
2016-12-30T08:52:53.243Z,3.63
2016-12-30T08:54:03.600Z,3.64
2016-12-30T08:55:13.959Z,3.72
2016-12-30T08:56:24.692Z,3.76
2016-12-30T08:57:35.049Z,3.67
2016-12-30T08:58:45.416Z,3.86
2016-12-30T08:59:56.166Z,3.86
2016-12-30T09:01:06.904Z,3.94
2016-12-30T09:02:17.244Z,4.03
2016-12-30T09:03:27.607Z,4.04
2016-12-30T09:04:37.957Z,4.11
2016-12-30T09:05:48.304Z,4.14
2016-12-30T09:06:59.046Z,4.15
2016-12-30T09:08:09.412Z,4.21
2016-12-30T09:09:19.759Z,4.2
2016-12-30T09:10:30.518Z,4.15
2016-12-30T09:11:40.848Z,4.3
2016-12-30T09:12:51.180Z,4.33
2016-12-30T09:14:01.126Z,4.38
2016-12-30T09:15:11.081Z,4.5
2016-12-30T09:16:21.826Z,4.54
2016-12-30T09:17:32.577Z,4.56
2016-12-30T09:18:42.532Z,4.61
2016-12-30T09:19:53.277Z,4.69
2016-12-30T09:21:04.017Z,4.64
2016-12-30T09:22:13.975Z,4.71
2016-12-30T09:23:24.339Z,4.76
2016-12-30T09:24:34.292Z,4.83
2016-12-30T09:25:45.029Z,4.87
2016-12-30T09:26:55.771Z,4.87
2016-12-30T09:28:05.728Z,4.92
2016-12-30T09:29:16.091Z,4.97
2016-12-30T09:30:26.846Z,5.08
2016-12-30T09:31:37.602Z,5.08
2016-12-30T09:32:47.941Z,5.15
2016-12-30T09:33:58.280Z,5.1
2016-12-30T09:35:09.007Z,5.18
2016-12-30T09:36:19.754Z,5.15
2016-12-30T09:37:30.106Z,5.33
2016-12-30T09:38:40.870Z,5.26
2016-12-30T09:39:51.621Z,5.24
2016-12-30T09:41:01.970Z,5.26
2016-12-30T09:42:12.328Z,5.31
2016-12-30T09:43:22.664Z,5.28
2016-12-30T09:44:33.406Z,5.36
2016-12-30T09:45:44.149Z,5.41
2016-12-30T09:46:54.495Z,5.49
2016-12-30T09:48:04.843Z,5.46
2016-12-30T09:49:15.578Z,5.59
2016-12-30T09:50:26.316Z,5.59
2016-12-30T09:51:37.046Z,5.57
2016-12-30T09:52:47.008Z,5.64
2016-12-30T09:53:57.361Z,5.66
2016-12-30T09:55:07.702Z,5.75
2016-12-30T09:56:18.438Z,5.84
2016-12-30T09:57:28.783Z,5.88
2016-12-30T09:58:39.166Z,5.82
2016-12-30T09:59:49.504Z,5.98
2016-12-30T10:00:59.453Z,6.14
2016-12-30T10:02:09.803Z,6.14
2016-12-30T10:03:20.535Z,6.2
2016-12-30T10:04:31.278Z,6.33
2016-12-30T10:05:42.028Z,6.34
2016-12-30T10:06:52.379Z,6.29
2016-12-30T10:08:03.132Z,6.37
2016-12-30T10:09:13.089Z,6.44
2016-12-30T10:10:23.439Z,6.47
2016-12-30T10:11:34.231Z,6.49
2016-12-30T10:12:44.582Z,6.46
2016-12-30T10:13:54.946Z,6.52
2016-12-30T10:15:04.905Z,6.58
2016-12-30T10:16:15.262Z,6.67
2016-12-30T10:17:26.004Z,6.73
2016-12-30T10:18:36.373Z,6.73
2016-12-30T10:19:47.134Z,6.82
2016-12-30T10:20:56.699Z,6.78
2016-12-30T10:22:07.436Z,6.83
2016-12-30T10:23:17.793Z,6.82
2016-12-30T10:24:28.541Z,6.76
2016-12-30T10:25:38.887Z,6.9
2016-12-30T10:26:49.225Z,6.9
2016-12-30T10:27:59.560Z,6.95
2016-12-30T10:29:09.527Z,6.85
2016-12-30T10:30:19.874Z,6.9
2016-12-30T10:31:30.224Z,6.9
2016-12-30T10:32:40.567Z,6.9
2016-12-30T10:33:50.933Z,6.94
2016-12-30T10:35:01.311Z,6.91
2016-12-30T10:36:12.052Z,6.86
2016-12-30T10:37:21.999Z,6.9
2016-12-30T10:38:32.740Z,6.95
2016-12-30T10:39:43.478Z,7.03
2016-12-30T10:40:53.829Z,6.97
2016-12-30T10:42:04.577Z,6.97
2016-12-30T10:43:15.329Z,6.94
2016-12-30T10:44:25.677Z,7.08
2016-12-30T10:45:36.415Z,7.05
2016-12-30T10:46:46.791Z,7.11
2016-12-30T10:47:57.148Z,7.12
2016-12-30T10:49:07.095Z,7.12
2016-12-30T10:50:17.077Z,7.13
2016-12-30T10:51:27.416Z,7.13
2016-12-30T10:52:37.775Z,7.21
2016-12-30T10:53:48.525Z,7.23
2016-12-30T10:54:58.918Z,7.21
2016-12-30T10:56:09.701Z,7.18
2016-12-30T10:57:20.477Z,7.18
2016-12-30T10:58:30.849Z,7.23
2016-12-30T10:59:41.602Z,7.39
2016-12-30T11:00:52.353Z,7.34
2016-12-30T11:02:02.709Z,7.41
2016-12-30T11:03:13.057Z,7.45
2016-12-30T11:04:23.404Z,7.58
2016-12-30T11:05:33.764Z,7.68
2016-12-30T11:06:44.151Z,7.75
2016-12-30T11:07:54.079Z,7.82
2016-12-30T11:09:04.421Z,7.92
2016-12-30T11:10:14.382Z,7.93
2016-12-30T11:11:25.155Z,8.04
2016-12-30T11:12:35.891Z,8.06
2016-12-30T11:13:46.631Z,8.21
2016-12-30T11:14:56.960Z,8.06
2016-12-30T11:16:07.701Z,8.11
2016-12-30T11:17:17.646Z,8.11
2016-12-30T11:18:27.599Z,8.17
2016-12-30T11:19:37.949Z,8.09
2016-12-30T11:20:47.925Z,8.07
2016-12-30T11:21:58.691Z,8.14
2016-12-30T11:23:09.449Z,8.17
2016-12-30T11:24:19.400Z,8.22
2016-12-30T11:25:29.762Z,8.35
2016-12-30T11:26:40.131Z,8.43
2016-12-30T11:27:50.082Z,8.4
2016-12-30T11:29:00.823Z,8.5
2016-12-30T11:30:11.563Z,8.44
2016-12-30T11:31:21.567Z,8.4
2016-12-30T11:32:31.922Z,8.47
2016-12-30T11:33:42.670Z,8.35
2016-12-30T11:41:14.031Z,8.46
2016-12-30T11:42:24.799Z,8.44
2016-12-30T11:43:35.547Z,8.52
2016-12-30T11:44:45.495Z,8.42
2016-12-30T11:45:55.847Z,8.44
2016-12-30T11:47:06.590Z,8.46
2016-12-30T11:48:17.345Z,8.57
2016-12-30T11:49:28.085Z,8.54
2016-12-30T11:50:38.059Z,8.61
2016-12-30T11:51:48.047Z,8.5
2016-12-30T11:52:59.036Z,8.6
2016-12-30T11:54:09.029Z,8.62
2016-12-30T11:55:19.389Z,8.57
2016-12-30T11:56:30.136Z,8.64
2016-12-30T11:57:40.873Z,8.64
2016-12-30T11:58:51.217Z,8.65
2016-12-30T12:00:00.386Z,8.67
2016-12-30T12:01:10.734Z,8.68
2016-12-30T12:02:21.100Z,8.68
2016-12-30T12:03:31.853Z,8.68
2016-12-30T12:04:42.212Z,8.76
2016-12-30T12:05:52.949Z,8.72
2016-12-30T12:07:03.726Z,8.8
2016-12-30T12:08:14.114Z,8.8
2016-12-30T12:09:24.459Z,8.83
2016-12-30T12:10:35.234Z,8.92
2016-12-30T12:11:45.199Z,8.86
2016-12-30T12:12:55.589Z,8.82
2016-12-30T12:14:05.960Z,8.83
2016-12-30T12:15:16.309Z,8.89
2016-12-30T12:16:26.684Z,8.9
2016-12-30T12:17:37.438Z,8.89
2016-12-30T12:18:47.778Z,8.89
2016-12-30T12:19:58.545Z,8.97
2016-12-30T12:21:09.300Z,9.08
2016-12-30T12:22:20.053Z,9.04
2016-12-30T12:23:30.029Z,9.17
2016-12-30T12:24:40.795Z,9.82
2016-12-30T12:25:51.553Z,11.23
2016-12-30T12:27:02.295Z,12.61
2016-12-30T12:28:12.661Z,13.6
2016-12-30T12:29:22.627Z,14.44
2016-12-30T12:30:32.581Z,14.86
2016-12-30T12:31:42.146Z,15.33
2016-12-30T12:32:52.513Z,15.55
2016-12-30T12:34:02.466Z,14.86
2016-12-30T12:35:12.813Z,13.88
2016-12-30T12:36:23.193Z,13.06
2016-12-30T12:37:33.964Z,12.41
2016-12-30T12:38:43.917Z,11.91
2016-12-30T12:39:54.271Z,11.89
2016-12-30T12:41:04.645Z,12.61
2016-12-30T12:42:15.003Z,12.99
2016-12-30T12:43:25.000Z,13.09
2016-12-30T12:44:34.960Z,12.78
2016-12-30T12:45:45.708Z,12.44
2016-12-30T12:46:56.483Z,12.16
2016-12-30T12:48:07.266Z,11.76
2016-12-30T12:49:18.030Z,11.48
2016-12-30T12:50:28.796Z,11.21
2016-12-30T12:51:39.165Z,11.12
2016-12-30T12:52:49.928Z,10.87
2016-12-30T12:54:00.294Z,10.8
2016-12-30T12:55:10.647Z,10.69
2016-12-30T12:56:21.032Z,10.52
2016-12-30T12:57:31.394Z,10.36
2016-12-30T12:58:41.762Z,10.28
2016-12-30T12:59:52.137Z,10.13
2016-12-30T13:01:02.125Z,10.08
2016-12-30T13:02:12.100Z,9.95
2016-12-30T13:03:22.458Z,9.88
2016-12-30T13:04:33.194Z,9.82
2016-12-30T13:05:43.204Z,9.78
2016-12-30T13:06:53.949Z,9.74
2016-12-30T13:08:04.739Z,9.62
2016-12-30T13:09:15.095Z,9.63
2016-12-30T13:10:25.877Z,9.56
2016-12-30T13:11:36.243Z,9.6
2016-12-30T13:12:47.022Z,9.59
2016-12-30T13:13:56.588Z,9.56
2016-12-30T13:15:07.327Z,9.44
2016-12-30T13:16:17.291Z,9.44
2016-12-30T13:17:26.069Z,9.26
2016-12-30T13:18:36.418Z,9.3
2016-12-30T13:19:47.160Z,9.24
2016-12-30T13:20:57.899Z,9.32
2016-12-30T13:22:08.260Z,9.19
2016-12-30T13:23:19.017Z,9.23
2016-12-30T13:24:28.979Z,9.23
2016-12-30T13:25:38.938Z,9.17
2016-12-30T13:26:49.681Z,9.14
2016-12-30T13:27:59.677Z,9.11
2016-12-30T13:29:10.044Z,9.17
2016-12-30T13:30:20.267Z,9.11
2016-12-30T13:31:31.004Z,9.05
2016-12-30T13:32:41.748Z,8.95
2016-12-30T13:33:52.105Z,8.94
2016-12-30T13:35:02.847Z,8.89
2016-12-30T13:36:13.635Z,8.95
2016-12-30T13:37:23.597Z,8.87
2016-12-30T13:38:34.369Z,8.82
2016-12-30T13:39:44.718Z,8.83
2016-12-30T13:40:55.075Z,8.79
2016-12-30T13:42:05.805Z,8.69
2016-12-30T13:43:15.779Z,8.67
2016-12-30T13:44:26.167Z,8.67
2016-12-30T13:45:36.118Z,8.57
2016-12-30T13:46:46.873Z,8.47
2016-12-30T13:47:57.626Z,8.43
2016-12-30T13:49:07.602Z,8.44
2016-12-30T13:50:17.956Z,8.43
2016-12-30T13:51:28.298Z,8.31
2016-12-30T13:52:39.062Z,8.39
2016-12-30T13:53:49.809Z,8.26
2016-12-30T13:54:59.760Z,8.14
2016-12-30T13:56:10.525Z,8.22
2016-12-30T13:57:20.896Z,8.21
2016-12-30T13:58:31.255Z,8.1
2016-12-30T13:59:41.997Z,8.07
2016-12-30T14:00:52.384Z,8.03
2016-12-30T14:02:03.187Z,7.93
2016-12-30T14:03:13.936Z,8.04
2016-12-30T14:04:24.706Z,7.91
2016-12-30T14:05:35.682Z,7.89
2016-12-30T14:06:46.432Z,7.86
2016-12-30T14:07:56.808Z,7.73
2016-12-30T14:09:06.796Z,7.61
2016-12-30T14:10:16.769Z,7.51
2016-12-30T14:11:27.524Z,7.45
2016-12-30T14:12:37.881Z,7.39
2016-12-30T14:13:47.472Z,7.34
2016-12-30T14:14:57.834Z,7.36
2016-12-30T14:16:08.602Z,7.26
2016-12-30T14:17:18.968Z,7.21
2016-12-30T14:18:29.711Z,7.08
2016-12-30T14:19:40.071Z,6.94
2016-12-30T14:20:50.043Z,6.93
2016-12-30T14:22:00.392Z,6.79
2016-12-30T14:23:11.146Z,6.73
2016-12-30T14:24:21.895Z,6.76
2016-12-30T14:25:32.253Z,6.65
2016-12-30T14:26:42.622Z,6.6
2016-12-30T14:27:53.616Z,6.46
2016-12-30T14:29:04.375Z,6.47
2016-12-30T14:30:14.333Z,6.44
2016-12-30T14:31:24.699Z,6.29
2016-12-30T14:32:35.076Z,6.33
2016-12-30T14:33:45.808Z,6.18
2016-12-30T14:34:56.140Z,6.21
2016-12-30T14:36:06.875Z,6.1
2016-12-30T14:37:17.613Z,6.14
2016-12-30T14:38:28.384Z,5.98
2016-12-30T14:39:38.735Z,5.99
2016-12-30T14:40:49.478Z,5.98
2016-12-30T14:42:00.229Z,5.88
2016-12-30T14:43:10.194Z,5.85
2016-12-30T14:44:20.145Z,5.78
2016-12-30T14:45:30.879Z,5.81
2016-12-30T14:46:40.837Z,5.67
2016-12-30T14:47:51.618Z,5.67
2016-12-30T14:49:02.397Z,5.63
2016-12-30T14:50:12.751Z,5.57
2016-12-30T14:51:23.103Z,5.51
2016-12-30T14:52:33.466Z,5.48
2016-12-30T14:53:44.212Z,5.44
2016-12-30T14:54:54.559Z,5.34
2016-12-30T14:56:04.932Z,5.36
2016-12-30T14:57:15.657Z,5.37
2016-12-30T14:58:26.402Z,5.34
2016-12-30T14:59:37.160Z,5.3
2016-12-30T15:00:47.912Z,5.18
2016-12-30T15:01:58.644Z,5.15
2016-12-30T15:03:08.997Z,5.18
2016-12-30T15:04:19.738Z,5.15
2016-12-30T15:05:30.089Z,5.12
2016-12-30T15:06:40.448Z,5.16
2016-12-30T15:07:50.399Z,5.18
2016-12-30T15:09:00.759Z,5.09
2016-12-30T15:10:11.115Z,5.05
2016-12-30T15:11:21.487Z,5.02
2016-12-30T15:12:32.269Z,5.05
2016-12-30T15:13:43.007Z,5.03
2016-12-30T15:14:53.362Z,4.97
2016-12-30T15:16:04.120Z,5.02
2016-12-30T15:17:13.693Z,4.91
2016-12-30T15:18:24.063Z,4.9
2016-12-30T15:19:34.821Z,4.79
2016-12-30T15:20:44.789Z,4.83
2016-12-30T15:21:55.146Z,4.79
2016-12-30T15:23:05.880Z,4.71
2016-12-30T15:24:16.236Z,4.72
2016-12-30T15:25:26.978Z,4.74
2016-12-30T15:26:37.731Z,4.65
2016-12-30T15:27:48.477Z,4.66
2016-12-30T15:28:58.827Z,4.65
2016-12-30T15:30:09.573Z,4.64
2016-12-30T15:31:19.946Z,4.61
2016-12-30T15:32:30.325Z,4.65
2016-12-30T15:33:41.062Z,4.51
2016-12-30T15:34:51.429Z,4.5
2016-12-30T15:36:02.196Z,4.44
2016-12-30T15:37:12.937Z,4.4
2016-12-30T15:38:23.694Z,4.4
2016-12-30T15:39:34.059Z,4.42
2016-12-30T15:40:44.416Z,4.38
2016-12-30T15:41:54.795Z,4.4
2016-12-30T15:43:05.554Z,4.33
2016-12-30T15:44:15.540Z,4.28
2016-12-30T15:45:25.508Z,4.22
2016-12-30T15:46:36.267Z,4.2
2016-12-30T15:47:46.623Z,4.17
2016-12-30T15:48:56.567Z,4.24
2016-12-30T15:50:07.342Z,4.24
2016-12-30T15:51:18.089Z,4.2
2016-12-30T15:52:28.446Z,4.14
2016-12-30T15:53:39.188Z,4.07
2016-12-30T15:54:49.556Z,4.1
2016-12-30T15:55:59.930Z,4.04
2016-12-30T15:57:09.895Z,4.03
2016-12-30T15:58:19.854Z,4
2016-12-30T15:59:30.223Z,3.99
2016-12-30T16:00:40.208Z,4.04
2016-12-30T16:01:50.969Z,3.97
2016-12-30T16:03:01.781Z,3.94
2016-12-30T16:04:12.564Z,3.86
2016-12-30T16:05:22.922Z,4
2016-12-30T16:06:33.674Z,3.81
2016-12-30T16:07:44.029Z,3.89
2016-12-30T16:08:54.760Z,3.85
2016-12-30T16:10:05.117Z,3.66
2016-12-30T16:11:15.858Z,3.75
2016-12-30T16:12:26.196Z,3.64
2016-12-30T16:13:36.545Z,3.66
2016-12-30T16:14:47.299Z,3.69
2016-12-30T16:15:57.669Z,3.61